Time;durP1;ratioP1;P1;durP2;ratioP2;P2;SDS_P1;SDS_P2;PMS_P1;PMS_P2;Temp;Humidity;BMP_temperature;BMP_pressure;BME280_temperature;BME280_humidity;BME280_pressure;Samples;Min_cycle;Max_cycle;Signal;HPM_P1;HPM_P2
2023/03/14 00:01:22;;;;;;;;;;;9.50;99.90;;;;;;5099453;28;20387;-82
2023/03/14 00:03:48;;;;;;;;;;;9.60;99.90;;;;;;5123718;28;19968;-82
2023/03/14 00:06:14;;;;;;;;;;;9.60;99.90;;;;;;5121746;28;19919;-82
2023/03/14 00:08:40;;;;;;;;;;;9.60;99.90;;;;;;5083218;27;19915;-82
2023/03/14 00:11:10;;;;;;;;;;;9.70;99.90;;;;;;5104027;27;19976;-81
2023/03/14 00:13:36;;;;;;;;;;;9.90;99.90;;;;;;5107503;27;19963;-81
2023/03/14 00:16:03;;;;;;;;;;;10.10;99.90;;;;;;5122537;27;19958;-82
2023/03/14 00:18:28;;;;;;;;;;;10.20;99.90;;;;;;5104860;27;19917;-82
2023/03/14 00:20:56;;;;;;;;;;;10.30;99.90;;;;;;5106402;28;19941;-82
2023/03/14 00:23:22;;;;;;;;;;;10.30;99.90;;;;;;5099177;28;19916;-82
2023/03/14 00:25:47;;;;;;;;;;;10.40;99.90;;;;;;5126591;27;19919;-82
2023/03/14 00:28:13;;;;;;;;;;;10.50;99.90;;;;;;5109572;27;20006;-81
2023/03/14 00:30:39;;;;;;;;;;;10.50;99.90;;;;;;5113537;27;20295;-82
2023/03/14 00:33:04;;;;;;;;;;;10.40;99.90;;;;;;5111933;27;19924;-81
2023/03/14 00:35:30;;;;;;;;;;;10.40;99.90;;;;;;5101564;27;19938;-82
2023/03/14 00:37:55;;;;;;;;;;;10.50;99.90;;;;;;5124429;27;19915;-82
2023/03/14 00:40:21;;;;;;;;;;;10.50;99.90;;;;;;5092378;27;19954;-82
2023/03/14 00:42:46;;;;;;;;;;;10.50;99.90;;;;;;5084887;27;19920;-81
2023/03/14 00:45:12;;;;;;;;;;;10.50;99.90;;;;;;5109354;27;19915;-82
2023/03/14 00:47:38;;;;;;;;;;;10.50;99.90;;;;;;5125870;27;19926;-81
2023/03/14 00:50:03;;;;;;;;;;;10.50;99.90;;;;;;5103239;27;19927;-82
2023/03/14 00:52:29;;;;;;;;;;;10.50;99.90;;;;;;5103048;28;19968;-81
2023/03/14 00:54:54;;;;;;;;;;;10.40;99.90;;;;;;5091651;27;20366;-81
2023/03/14 00:57:20;;;;;;;;;;;10.40;99.90;;;;;;5125955;27;19930;-82
2023/03/14 00:59:45;;;;;;;;;;;10.40;99.90;;;;;;5103160;27;19922;-82
2023/03/14 01:02:11;;;;;;;;;;;10.40;99.90;;;;;;5104438;28;19915;-81
2023/03/14 01:04:39;;;;;;;;;;;10.40;99.90;;;;;;5103309;27;20426;-81
2023/03/14 01:07:04;;;;;;;;;;;10.40;99.90;;;;;;5106803;27;19962;-82
2023/03/14 01:09:30;;;;;;;;;;;10.30;99.90;;;;;;5120682;27;19963;-83
2023/03/14 01:11:56;;;;;;;;;;;10.20;99.90;;;;;;5127078;27;20379;-81
2023/03/14 01:14:21;;;;;;;;;;;10.30;99.90;;;;;;5103433;28;20338;-81
2023/03/14 01:16:47;;;;;;;;;;;10.30;99.90;;;;;;5099023;27;19923;-82
2023/03/14 01:19:12;;;;;;;;;;;10.40;99.90;;;;;;5122524;27;19962;-81
2023/03/14 01:21:38;;;;;;;;;;;10.30;99.90;;;;;;5110585;27;19915;-81
2023/03/14 01:24:05;;;;;;;;;;;10.20;99.90;;;;;;5102638;28;20400;-81
2023/03/14 01:26:32;;;;;;;;;;;10.10;99.90;;;;;;5097309;28;19916;-81
2023/03/14 01:28:57;;;;;;;;;;;10.10;99.90;;;;;;5103324;28;19923;-81
2023/03/14 01:31:24;;;;;;;;;;;10.20;99.90;;;;;;5105634;28;19942;-82
2023/03/14 01:33:49;;;;;;;;;;;10.20;99.90;;;;;;5091192;28;20006;-82
2023/03/14 01:36:15;;;;;;;;;;;10.30;99.90;;;;;;5116992;27;19966;-82
2023/03/14 01:38:41;;;;;;;;;;;10.50;99.90;;;;;;5122824;27;19998;-82
2023/03/14 01:41:08;;;;;;;;;;;10.60;99.90;;;;;;5091319;27;19965;-82
2023/03/14 01:43:33;;;;;;;;;;;10.70;99.90;;;;;;5123463;27;20002;-82
2023/03/14 01:46:05;;;;;;;;;;;10.70;99.90;;;;;;5111010;27;19969;-82
2023/03/14 01:48:38;;;;;;;;;;;10.60;99.90;;;;;;5103115;27;20410;-82
2023/03/14 01:51:06;;;;;;;;;;;10.60;99.90;;;;;;5098623;28;20688;-82
2023/03/14 01:53:32;;;;;;;;;;;10.60;99.90;;;;;;5109598;28;19920;-82
2023/03/14 01:55:57;;;;;;;;;;;10.60;99.90;;;;;;5083258;27;19915;-82
2023/03/14 01:58:27;;;;;;;;;;;10.40;99.90;;;;;;5083601;28;20006;-81
2023/03/14 02:00:53;;;;;;;;;;;10.50;99.90;;;;;;5125642;27;19920;-84
2023/03/14 02:03:20;;;;;;;;;;;10.40;99.90;;;;;;5110580;27;19916;-82
2023/03/14 02:05:46;;;;;;;;;;;10.40;99.90;;;;;;5104673;27;19916;-81
2023/03/14 02:08:18;;;;;;;;;;;10.40;99.90;;;;;;5093305;27;19915;-81
2023/03/14 02:10:45;;;;;;;;;;;10.40;99.90;;;;;;5109865;27;19954;-81
2023/03/14 02:13:11;;;;;;;;;;;10.40;99.90;;;;;;5132011;27;19919;-81
2023/03/14 02:15:37;;;;;;;;;;;10.40;99.90;;;;;;5111455;27;19920;-82
2023/03/14 02:18:03;;;;;;;;;;;10.30;99.90;;;;;;5137420;27;19999;-82
2023/03/14 02:20:35;;;;;;;;;;;10.30;99.90;;;;;;5108540;27;20274;-82
2023/03/14 02:23:01;;;;;;;;;;;10.30;99.90;;;;;;5125519;27;19973;-82
2023/03/14 02:25:26;;;;;;;;;;;10.10;99.90;;;;;;5098654;27;20386;-81
2023/03/14 02:27:52;;;;;;;;;;;10.20;99.90;;;;;;5105228;27;19915;-82
2023/03/14 02:30:20;;;;;;;;;;;10.10;99.90;;;;;;5080533;27;19968;-82
2023/03/14 02:32:51;;;;;;;;;;;10.10;99.90;;;;;;5104309;27;19919;-82
2023/03/14 02:35:19;;;;;;;;;;;10.10;99.90;;;;;;5106530;27;19919;-82
2023/03/14 02:37:54;;;;;;;;;;;10.10;99.90;;;;;;5125068;27;19916;-82
2023/03/14 02:40:20;;;;;;;;;;;10.00;99.90;;;;;;5125045;27;19958;-82
2023/03/14 02:42:45;;;;;;;;;;;10.00;99.90;;;;;;5128823;27;19959;-82
2023/03/14 02:45:11;;;;;;;;;;;10.00;99.90;;;;;;5132512;27;19923;-81
2023/03/14 02:47:41;;;;;;;;;;;10.00;99.90;;;;;;5119480;27;20370;-82
2023/03/14 02:50:18;;;;;;;;;;;10.10;99.90;;;;;;5106484;27;19923;-82
2023/03/14 02:52:44;;;;;;;;;;;10.10;99.90;;;;;;5126357;27;19993;-82
2023/03/14 02:55:09;;;;;;;;;;;10.00;99.90;;;;;;5097372;27;19915;-82
2023/03/14 02:57:35;;;;;;;;;;;10.00;99.90;;;;;;5118058;27;19929;-82
2023/03/14 03:00:03;;;;;;;;;;;9.90;99.90;;;;;;5118837;27;19927;-82
2023/03/14 03:02:29;;;;;;;;;;;9.90;99.90;;;;;;5107180;27;19915;-82
2023/03/14 03:04:55;;;;;;;;;;;9.90;99.90;;;;;;5124450;27;19978;-82
2023/03/14 03:07:20;;;;;;;;;;;9.90;99.90;;;;;;5086191;27;19926;-82
2023/03/14 03:09:46;;;;;;;;;;;9.80;99.90;;;;;;5132165;27;19919;-82
2023/03/14 03:12:11;;;;;;;;;;;9.80;99.90;;;;;;5108972;27;19944;-81
2023/03/14 03:14:37;;;;;;;;;;;9.70;99.90;;;;;;5124767;27;20401;-82
2023/03/14 03:17:03;;;;;;;;;;;9.60;99.90;;;;;;5120880;27;19915;-81
2023/03/14 03:19:29;;;;;;;;;;;9.60;99.90;;;;;;5103898;28;19919;-81
2023/03/14 03:21:54;;;;;;;;;;;9.60;99.90;;;;;;5110484;28;20014;-81
2023/03/14 03:24:20;;;;;;;;;;;9.50;99.90;;;;;;5123208;28;19915;-81
2023/03/14 03:26:46;;;;;;;;;;;9.40;99.90;;;;;;5122662;28;19930;-81
2023/03/14 03:29:11;;;;;;;;;;;9.20;99.90;;;;;;5090544;28;19920;-81
2023/03/14 03:31:37;;;;;;;;;;;9.30;99.90;;;;;;5100114;28;20022;-80
2023/03/14 03:34:03;;;;;;;;;;;9.40;99.90;;;;;;5098360;28;19920;-80
2023/03/14 03:36:29;;;;;;;;;;;9.30;99.90;;;;;;5103184;28;19922;-80
2023/03/14 03:38:54;;;;;;;;;;;9.30;99.90;;;;;;5102367;28;20324;-81
2023/03/14 03:41:20;;;;;;;;;;;9.30;99.90;;;;;;5099069;28;19915;-80
2023/03/14 03:43:45;;;;;;;;;;;9.30;99.90;;;;;;5107124;27;19919;-80
2023/03/14 03:46:11;;;;;;;;;;;9.30;99.90;;;;;;5127487;27;20008;-80
2023/03/14 03:48:37;;;;;;;;;;;9.40;99.90;;;;;;5102293;28;20416;-80
2023/03/14 03:51:03;;;;;;;;;;;9.50;99.90;;;;;;5129748;27;19931;-80
2023/03/14 03:53:29;;;;;;;;;;;9.40;99.90;;;;;;5126447;27;19915;-80
2023/03/14 03:55:54;;;;;;;;;;;9.40;99.90;;;;;;5109745;28;19915;-80
2023/03/14 03:58:20;;;;;;;;;;;9.30;99.90;;;;;;5113822;27;19958;-81
2023/03/14 04:00:46;;;;;;;;;;;9.30;99.90;;;;;;5107649;27;19915;-81
2023/03/14 04:03:11;;;;;;;;;;;9.20;99.90;;;;;;5105167;27;19930;-81
2023/03/14 04:05:37;;;;;;;;;;;9.30;99.90;;;;;;5107661;27;19964;-81
2023/03/14 04:08:03;;;;;;;;;;;9.30;99.90;;;;;;5126764;27;20023;-81
2023/03/14 04:10:29;;;;;;;;;;;9.40;99.90;;;;;;5119182;27;19927;-81
2023/03/14 04:12:54;;;;;;;;;;;9.20;99.90;;;;;;5124109;27;19920;-81
2023/03/14 04:15:20;;;;;;;;;;;9.30;99.90;;;;;;5123375;27;19922;-81
2023/03/14 04:17:45;;;;;;;;;;;9.30;99.90;;;;;;5104342;27;20014;-81
2023/03/14 04:20:11;;;;;;;;;;;9.30;99.90;;;;;;5110322;27;19923;-81
2023/03/14 04:22:38;;;;;;;;;;;9.30;99.90;;;;;;5123611;27;19927;-81
2023/03/14 04:25:04;;;;;;;;;;;9.40;99.90;;;;;;5118997;27;19919;-81
2023/03/14 04:27:29;;;;;;;;;;;9.40;99.90;;;;;;5106665;28;19916;-81
2023/03/14 04:29:55;;;;;;;;;;;9.40;99.90;;;;;;5109271;27;19919;-81
2023/03/14 04:32:20;;;;;;;;;;;9.40;99.90;;;;;;5109625;27;19915;-81
2023/03/14 04:34:46;;;;;;;;;;;9.40;99.90;;;;;;5103875;27;19923;-81
2023/03/14 04:37:12;;;;;;;;;;;9.30;99.90;;;;;;5102489;27;19915;-81
2023/03/14 04:39:37;;;;;;;;;;;9.40;99.90;;;;;;5100755;28;20631;-81
2023/03/14 04:42:03;;;;;;;;;;;9.40;99.90;;;;;;5107568;27;19930;-81
2023/03/14 04:44:29;;;;;;;;;;;9.30;99.90;;;;;;5124376;27;20358;-80
2023/03/14 04:46:54;;;;;;;;;;;9.30;99.90;;;;;;5090976;27;19965;-80
2023/03/14 04:49:20;;;;;;;;;;;9.30;99.90;;;;;;5107543;28;20404;-81
2023/03/14 04:51:45;;;;;;;;;;;9.30;99.90;;;;;;5086694;28;19915;-80
2023/03/14 04:54:11;;;;;;;;;;;9.30;99.90;;;;;;5120379;27;19915;-80
2023/03/14 04:56:36;;;;;;;;;;;9.30;99.90;;;;;;5118184;27;19924;-80
2023/03/14 04:59:03;;;;;;;;;;;9.30;99.90;;;;;;5126007;27;19915;-80
2023/03/14 05:01:28;;;;;;;;;;;9.30;99.90;;;;;;5111223;27;19964;-79
2023/03/14 05:03:54;;;;;;;;;;;9.30;99.90;;;;;;5123208;27;19990;-79
2023/03/14 05:06:19;;;;;;;;;;;9.30;99.90;;;;;;5111347;27;19923;-79
2023/03/14 05:08:45;;;;;;;;;;;9.30;99.90;;;;;;5110275;27;19922;-79
2023/03/14 05:11:12;;;;;;;;;;;9.30;99.90;;;;;;5107948;27;19944;-79
2023/03/14 05:13:37;;;;;;;;;;;9.30;99.90;;;;;;5123579;27;19928;-79
2023/03/14 05:16:07;;;;;;;;;;;9.20;99.90;;;;;;5128463;27;19915;-80
2023/03/14 05:18:32;;;;;;;;;;;9.10;99.90;;;;;;5119479;27;20002;-79
2023/03/14 05:20:58;;;;;;;;;;;9.20;99.90;;;;;;5128659;27;19962;-78
2023/03/14 05:23:24;;;;;;;;;;;9.10;99.90;;;;;;5113119;27;19915;-78
2023/03/14 05:25:49;;;;;;;;;;;9.10;99.90;;;;;;5125529;27;19919;-78
2023/03/14 05:28:15;;;;;;;;;;;9.00;99.90;;;;;;5125992;27;19921;-78
2023/03/14 05:30:40;;;;;;;;;;;9.00;99.90;;;;;;5122449;27;19915;-76
2023/03/14 05:33:06;;;;;;;;;;;8.90;99.90;;;;;;5105980;27;19923;-76
2023/03/14 05:35:32;;;;;;;;;;;8.80;99.90;;;;;;5130475;27;19967;-76
2023/03/14 05:37:57;;;;;;;;;;;8.80;99.90;;;;;;5104335;27;19930;-77
2023/03/14 05:40:23;;;;;;;;;;;8.70;99.90;;;;;;5126254;27;20387;-77
2023/03/14 05:42:48;;;;;;;;;;;8.70;99.90;;;;;;5115484;27;19915;-78
2023/03/14 05:45:14;;;;;;;;;;;8.70;99.90;;;;;;5122880;27;20382;-79
2023/03/14 05:47:40;;;;;;;;;;;8.60;99.90;;;;;;5126849;27;19915;-78
2023/03/14 05:50:05;;;;;;;;;;;8.70;99.90;;;;;;5107696;27;19921;-77
2023/03/14 05:52:31;;;;;;;;;;;8.60;99.90;;;;;;5130816;27;20411;-80
2023/03/14 05:54:57;;;;;;;;;;;8.60;99.90;;;;;;5128738;27;19915;-78
2023/03/14 05:57:22;;;;;;;;;;;8.60;99.90;;;;;;5122956;27;19915;-80
2023/03/14 05:59:48;;;;;;;;;;;8.70;99.90;;;;;;5123512;27;19953;-79
2023/03/14 06:02:13;;;;;;;;;;;8.70;99.90;;;;;;5108281;27;19915;-78
2023/03/14 06:04:39;;;;;;;;;;;8.70;99.90;;;;;;5125651;27;19923;-78
2023/03/14 06:07:04;;;;;;;;;;;8.60;99.90;;;;;;5107552;27;19914;-79
2023/03/14 06:09:30;;;;;;;;;;;8.60;99.90;;;;;;5125038;27;20362;-79
2023/03/14 06:11:56;;;;;;;;;;;8.60;99.90;;;;;;5105521;27;19925;-78
2023/03/14 06:14:21;;;;;;;;;;;8.60;99.90;;;;;;5111405;27;19915;-79
2023/03/14 06:16:48;;;;;;;;;;;8.60;99.90;;;;;;5094182;27;19967;-79
2023/03/14 06:19:14;;;;;;;;;;;8.60;99.90;;;;;;5125283;27;19965;-79
2023/03/14 06:21:40;;;;;;;;;;;8.60;99.90;;;;;;5127927;27;20370;-79
2023/03/14 06:24:05;;;;;;;;;;;8.60;99.90;;;;;;5108246;27;19945;-79
2023/03/14 06:26:31;;;;;;;;;;;8.60;99.90;;;;;;5108456;27;20281;-78
2023/03/14 06:28:57;;;;;;;;;;;8.60;99.90;;;;;;5125143;27;19918;-79
2023/03/14 06:31:22;;;;;;;;;;;8.60;99.90;;;;;;5110512;27;19920;-79
2023/03/14 06:33:48;;;;;;;;;;;8.60;99.90;;;;;;5110858;27;19915;-79
2023/03/14 06:36:13;;;;;;;;;;;8.20;99.90;;;;;;5124676;27;19923;-79
2023/03/14 06:38:39;;;;;;;;;;;7.60;99.90;;;;;;5125182;27;19922;-79
2023/03/14 06:41:05;;;;;;;;;;;7.40;99.90;;;;;;5105394;27;19919;-80
2023/03/14 06:43:30;;;;;;;;;;;7.20;99.90;;;;;;5123348;27;19961;-80
2023/03/14 06:45:56;;;;;;;;;;;7.10;99.90;;;;;;5107537;27;20295;-80
2023/03/14 06:48:21;;;;;;;;;;;7.00;99.90;;;;;;5127668;27;19915;-77
2023/03/14 06:50:47;;;;;;;;;;;6.80;99.90;;;;;;5124237;27;19965;-78
2023/03/14 06:53:13;;;;;;;;;;;6.60;99.90;;;;;;5122023;27;20010;-77
2023/03/14 06:55:39;;;;;;;;;;;6.50;99.90;;;;;;5126328;27;19916;-77
2023/03/14 06:58:06;;;;;;;;;;;6.30;99.90;;;;;;5124378;27;19915;-78
2023/03/14 07:00:32;;;;;;;;;;;6.20;99.90;;;;;;5126747;27;19915;-79
2023/03/14 07:02:57;;;;;;;;;;;5.90;99.90;;;;;;5125800;27;19915;-79
2023/03/14 07:05:23;;;;;;;;;;;5.80;99.90;;;;;;5125308;27;19922;-80
2023/03/14 07:07:49;;;;;;;;;;;5.70;99.90;;;;;;5107501;27;19921;-79
2023/03/14 07:10:14;;;;;;;;;;;5.60;99.90;;;;;;5109809;27;20302;-79
2023/03/14 07:12:40;;;;;;;;;;;5.50;99.90;;;;;;5123632;27;19967;-79
2023/03/14 07:15:06;;;;;;;;;;;5.40;99.90;;;;;;5108381;27;19981;-78
2023/03/14 07:17:31;;;;;;;;;;;5.30;99.90;;;;;;5125046;27;19961;-78
2023/03/14 07:19:57;;;;;;;;;;;5.20;99.90;;;;;;5124479;27;19918;-78
2023/03/14 07:22:22;;;;;;;;;;;5.00;99.90;;;;;;5107065;27;19940;-78
2023/03/14 07:24:48;;;;;;;;;;;4.90;99.90;;;;;;5121443;27;19928;-77
2023/03/14 07:27:13;;;;;;;;;;;4.80;99.90;;;;;;5125542;27;20283;-78
2023/03/14 07:29:39;;;;;;;;;;;4.80;99.90;;;;;;5105090;27;20343;-78
2023/03/14 07:32:04;;;;;;;;;;;4.70;99.90;;;;;;5106735;27;19914;-79
2023/03/14 07:34:30;;;;;;;;;;;5.00;99.90;;;;;;5124434;27;19992;-78
2023/03/14 07:36:56;;;;;;;;;;;4.60;99.90;;;;;;5107741;27;19964;-78
2023/03/14 07:39:21;;;;;;;;;;;4.60;99.90;;;;;;5125924;27;19972;-78
2023/03/14 07:41:47;;;;;;;;;;;4.60;99.90;;;;;;5121067;27;19942;-78
2023/03/14 07:44:12;;;;;;;;;;;5.00;99.90;;;;;;5124158;27;20343;-79
2023/03/14 07:46:38;;;;;;;;;;;5.00;99.90;;;;;;5123796;27;19960;-79
2023/03/14 07:49:03;;;;;;;;;;;5.00;99.90;;;;;;5123911;27;19976;-79
2023/03/14 07:51:29;;;;;;;;;;;4.70;99.90;;;;;;5106749;27;19919;-78
2023/03/14 07:53:55;;;;;;;;;;;4.70;99.90;;;;;;5126204;27;20382;-78
2023/03/14 07:56:20;;;;;;;;;;;4.70;99.90;;;;;;5106878;27;19915;-79
2023/03/14 07:58:46;;;;;;;;;;;4.70;99.90;;;;;;5110160;27;20138;-79
2023/03/14 08:01:11;;;;;;;;;;;4.70;99.90;;;;;;5106888;27;20002;-79
2023/03/14 08:03:37;;;;;;;;;;;4.60;99.90;;;;;;5107107;27;19923;-79
2023/03/14 08:06:02;;;;;;;;;;;4.60;99.90;;;;;;5093203;27;19915;-79
2023/03/14 08:08:28;;;;;;;;;;;4.70;99.90;;;;;;5136277;27;20006;-79
2023/03/14 08:10:54;;;;;;;;;;;4.80;99.90;;;;;;5125529;27;19968;-79
2023/03/14 08:13:21;;;;;;;;;;;4.80;99.90;;;;;;5118257;28;20398;-79
2023/03/14 08:15:50;;;;;;;;;;;4.90;99.90;;;;;;5123335;27;19919;-79
2023/03/14 08:18:16;;;;;;;;;;;4.90;99.90;;;;;;5121673;27;19998;-80
2023/03/14 08:20:42;;;;;;;;;;;4.90;99.90;;;;;;5122087;27;20021;-80
2023/03/14 08:23:07;;;;;;;;;;;5.00;99.90;;;;;;5124019;27;19923;-80
2023/03/14 08:25:33;;;;;;;;;;;5.10;99.90;;;;;;5124240;27;19922;-80
2023/03/14 08:27:59;;;;;;;;;;;5.10;99.90;;;;;;5126495;27;20270;-79
2023/03/14 08:30:25;;;;;;;;;;;5.20;99.90;;;;;;5126121;27;19926;-80
2023/03/14 08:32:50;;;;;;;;;;;5.20;99.90;;;;;;5128878;27;20364;-79
2023/03/14 08:35:16;;;;;;;;;;;5.30;99.90;;;;;;5127438;27;19919;-79
2023/03/14 08:37:42;;;;;;;;;;;5.40;99.90;;;;;;5127513;27;20347;-80
2023/03/14 08:40:09;;;;;;;;;;;5.50;99.90;;;;;;5124739;27;19990;-80
2023/03/14 08:42:38;;;;;;;;;;;5.50;99.90;;;;;;5127196;27;19964;-80
2023/03/14 08:45:04;;;;;;;;;;;5.70;99.90;;;;;;5127862;27;20243;-80
2023/03/14 08:47:30;;;;;;;;;;;5.90;99.90;;;;;;5109942;27;20006;-80
2023/03/14 08:49:55;;;;;;;;;;;6.00;99.90;;;;;;5110580;27;20367;-80
2023/03/14 08:52:21;;;;;;;;;;;6.20;99.90;;;;;;5127067;27;20001;-80
2023/03/14 08:54:47;;;;;;;;;;;6.10;99.90;;;;;;5108233;27;19962;-80
2023/03/14 08:57:12;;;;;;;;;;;6.10;99.90;;;;;;5130024;27;19915;-80
2023/03/14 08:59:38;;;;;;;;;;;6.20;99.90;;;;;;5127494;27;19922;-80
2023/03/14 09:02:04;;;;;;;;;;;6.30;99.90;;;;;;5125229;27;19975;-80
2023/03/14 09:04:30;;;;;;;;;;;6.40;99.90;;;;;;5130502;27;19919;-80
2023/03/14 09:06:57;;;;;;;;;;;6.50;99.90;;;;;;5124318;27;20006;-81
2023/03/14 09:09:24;;;;;;;;;;;6.70;99.90;;;;;;5110047;27;20007;-82
2023/03/14 09:11:49;;;;;;;;;;;7.10;99.90;;;;;;5109343;27;19919;-81
2023/03/14 09:14:15;;;;;;;;;;;7.30;99.90;;;;;;5111003;27;19922;-81
2023/03/14 09:16:40;;;;;;;;;;;7.70;99.90;;;;;;5127426;27;20393;-81
2023/03/14 09:19:06;;;;;;;;;;;8.00;99.90;;;;;;5109949;27;20010;-82
2023/03/14 09:21:32;;;;;;;;;;;8.10;99.90;;;;;;5126629;27;19915;-81
2023/03/14 09:23:57;;;;;;;;;;;7.90;99.90;;;;;;5123414;27;19915;-81
2023/03/14 09:26:23;;;;;;;;;;;7.90;99.90;;;;;;5127324;27;19973;-81
2023/03/14 09:28:48;;;;;;;;;;;7.70;99.90;;;;;;5125780;27;19960;-82
2023/03/14 09:31:14;;;;;;;;;;;7.40;99.90;;;;;;5122996;27;19920;-81
2023/03/14 09:33:40;;;;;;;;;;;7.40;99.90;;;;;;5125830;27;19988;-81
2023/03/14 09:36:07;;;;;;;;;;;7.30;99.90;;;;;;5107469;27;19915;-82
2023/03/14 09:38:32;;;;;;;;;;;7.20;99.90;;;;;;5104462;27;19919;-81
2023/03/14 09:40:59;;;;;;;;;;;7.20;99.90;;;;;;5129416;27;20358;-81
2023/03/14 09:43:26;;;;;;;;;;;7.10;99.90;;;;;;5108779;27;20018;-81
2023/03/14 09:45:52;;;;;;;;;;;7.00;99.90;;;;;;5110501;27;19915;-81
2023/03/14 09:48:22;;;;;;;;;;;6.90;99.90;;;;;;5122894;27;19988;-81
2023/03/14 09:50:49;;;;;;;;;;;6.90;99.90;;;;;;5125953;27;19920;-82
2023/03/14 09:53:24;;;;;;;;;;;7.00;99.90;;;;;;5125983;27;19915;-81
2023/03/14 09:55:50;;;;;;;;;;;7.00;99.90;;;;;;5140530;27;20374;-81
2023/03/14 09:58:18;;;;;;;;;;;7.00;99.90;;;;;;5087897;27;20378;-81
2023/03/14 10:00:43;;;;;;;;;;;7.00;99.90;;;;;;5109003;27;19919;-81
2023/03/14 10:03:12;;;;;;;;;;;7.00;99.90;;;;;;5128654;27;19960;-81
2023/03/14 10:05:38;;;;;;;;;;;7.00;99.90;;;;;;5122613;27;19919;-81
2023/03/14 10:08:04;;;;;;;;;;;7.00;99.90;;;;;;5127122;27;20468;-81
2023/03/14 10:10:30;;;;;;;;;;;6.90;99.90;;;;;;5125198;27;19923;-81
2023/03/14 10:13:01;;;;;;;;;;;6.80;99.90;;;;;;5123296;27;20019;-81
2023/03/14 10:15:31;;;;;;;;;;;6.80;99.90;;;;;;5107695;27;20382;-81
2023/03/14 10:17:59;;;;;;;;;;;6.80;99.90;;;;;;5128513;27;20366;-81
2023/03/14 10:20:27;;;;;;;;;;;6.80;99.90;;;;;;5125103;27;19954;-81
2023/03/14 10:22:53;;;;;;;;;;;6.90;99.90;;;;;;5123676;27;20009;-81
2023/03/14 10:25:32;;;;;;;;;;;7.10;99.90;;;;;;5124558;27;19957;-81
2023/03/14 10:27:58;;;;;;;;;;;7.30;99.90;;;;;;5126564;27;19966;-81
2023/03/14 10:30:32;;;;;;;;;;;7.60;99.90;;;;;;5124910;27;20584;-81
2023/03/14 10:33:07;;;;;;;;;;;7.80;99.90;;;;;;5127782;27;19914;-81
2023/03/14 10:35:33;;;;;;;;;;;8.10;99.90;;;;;;5119689;27;19916;-82
2023/03/14 10:38:03;;;;;;;;;;;8.10;99.90;;;;;;5130611;27;20338;-81
2023/03/14 10:40:30;;;;;;;;;;;8.30;99.90;;;;;;5120175;27;19915;-81
2023/03/14 10:42:57;;;;;;;;;;;8.20;99.90;;;;;;5125152;27;19915;-82
2023/03/14 10:45:37;;;;;;;;;;;8.10;99.90;;;;;;5123361;27;19938;-82
2023/03/14 10:48:17;;;;;;;;;;;8.00;99.90;;;;;;5126662;27;20387;-82
2023/03/14 10:50:55;;;;;;;;;;;8.20;99.90;;;;;;5124933;27;19919;-82
2023/03/14 10:53:21;;;;;;;;;;;8.80;99.90;;;;;;5122660;27;20002;-82
2023/03/14 10:55:46;;;;;;;;;;;9.30;99.90;;;;;;5127244;27;20014;-82
2023/03/14 10:58:24;;;;;;;;;;;9.10;99.90;;;;;;5124554;27;19915;-82
2023/03/14 11:01:02;;;;;;;;;;;8.80;99.90;;;;;;5122151;27;20608;-82
2023/03/14 11:03:29;;;;;;;;;;;8.40;99.90;;;;;;5124822;27;19915;-81
2023/03/14 11:05:57;;;;;;;;;;;8.90;99.90;;;;;;5124850;27;19929;-82
2023/03/14 11:08:31;;;;;;;;;;;8.90;99.90;;;;;;5106621;27;19915;-82
2023/03/14 11:11:15;;;;;;;;;;;8.80;99.90;;;;;;5140750;27;19930;-82
2023/03/14 11:13:53;;;;;;;;;;;8.50;99.90;;;;;;5122201;27;19919;-82
2023/03/14 11:16:26;;;;;;;;;;;8.60;99.90;;;;;;5126814;27;20274;-83
2023/03/14 11:18:52;;;;;;;;;;;9.60;99.90;;;;;;5107675;27;19923;-82
2023/03/14 11:21:23;;;;;;;;;;;9.90;99.90;;;;;;5125165;27;19926;-82
2023/03/14 11:24:12;;;;;;;;;;;9.40;99.90;;;;;;5110492;27;19914;-82
2023/03/14 11:26:50;;;;;;;;;;;8.70;99.90;;;;;;5140249;27;19926;-82
2023/03/14 11:29:25;;;;;;;;;;;8.30;99.90;;;;;;5107408;28;19915;-82
2023/03/14 11:31:52;;;;;;;;;;;8.30;99.90;;;;;;5123731;27;19919;-83
2023/03/14 11:34:26;;;;;;;;;;;8.80;99.90;;;;;;5123905;27;19940;-80
2023/03/14 11:36:55;;;;;;;;;;;9.60;99.90;;;;;;5126712;27;19919;-80
2023/03/14 11:39:22;;;;;;;;;;;9.80;98.40;;;;;;5105141;27;19915;-82
2023/03/14 11:41:53;;;;;;;;;;;9.60;99.70;;;;;;5106808;27;19979;-80
2023/03/14 11:44:20;;;;;;;;;;;9.70;99.30;;;;;;5107887;27;19995;-81
2023/03/14 11:46:56;;;;;;;;;;;10.30;99.90;;;;;;5110704;27;19936;-81
2023/03/14 11:49:25;;;;;;;;;;;10.60;99.20;;;;;;5106250;27;19919;-83
2023/03/14 11:51:52;;;;;;;;;;;11.20;98.40;;;;;;5112334;27;19919;-82
2023/03/14 11:54:20;;;;;;;;;;;11.60;97.30;;;;;;5124717;27;19920;-82
2023/03/14 11:56:52;;;;;;;;;;;11.70;98.10;;;;;;5123086;27;19957;-82
2023/03/14 11:59:21;;;;;;;;;;;11.70;97.10;;;;;;5106979;27;19919;-82
2023/03/14 12:02:13;;;;;;;;;;;12.40;97.70;;;;;;5124039;27;19919;-83
2023/03/14 12:04:38;;;;;;;;;;;13.00;96.20;;;;;;5127747;27;20328;-83
2023/03/14 12:07:25;;;;;;;;;;;13.00;96.50;;;;;;5129177;27;19915;-82
2023/03/14 12:09:52;;;;;;;;;;;12.60;96.00;;;;;;5131282;27;20742;-83
2023/03/14 12:12:22;;;;;;;;;;;11.50;96.20;;;;;;5108717;27;19919;-83
2023/03/14 12:15:10;;;;;;;;;;;10.80;97.30;;;;;;5106603;27;19970;-83
2023/03/14 12:17:40;;;;;;;;;;;10.40;97.50;;;;;;5103782;27;19940;-83
2023/03/14 12:20:15;;;;;;;;;;;10.30;96.60;;;;;;5085611;27;19915;-83
2023/03/14 12:23:01;;;;;;;;;;;10.40;97.00;;;;;;5145193;27;19968;-83
2023/03/14 12:25:29;;;;;;;;;;;10.60;98.20;;;;;;5128477;27;19922;-83
2023/03/14 12:27:54;;;;;;;;;;;10.10;99.90;;;;;;5112543;27;19965;-83
2023/03/14 12:30:25;;;;;;;;;;;9.60;99.90;;;;;;5108764;27;19919;-83
2023/03/14 12:33:09;;;;;;;;;;;9.50;99.90;;;;;;5126016;27;19933;-83
2023/03/14 12:35:38;;;;;;;;;;;9.50;99.90;;;;;;5109486;27;19915;-83
2023/03/14 12:38:30;;;;;;;;;;;10.20;99.90;;;;;;5112851;27;19944;-82
2023/03/14 12:41:05;;;;;;;;;;;10.20;99.10;;;;;;5083147;27;19986;-83
2023/03/14 12:43:33;;;;;;;;;;;10.00;99.90;;;;;;5111607;27;19922;-83
2023/03/14 12:46:07;;;;;;;;;;;9.80;99.90;;;;;;5126019;27;19962;-83
2023/03/14 12:48:33;;;;;;;;;;;9.50;99.90;;;;;;5109946;27;20323;-84
2023/03/14 12:51:03;;;;;;;;;;;9.10;99.90;;;;;;5093331;27;19919;-83
2023/03/14 12:53:51;;;;;;;;;;;9.30;99.90;;;;;;5120988;27;19922;-83
2023/03/14 12:56:20;;;;;;;;;;;9.40;99.90;;;;;;5123824;27;19921;-84
2023/03/14 12:59:01;;;;;;;;;;;9.40;99.90;;;;;;5144345;27;19952;-84
2023/03/14 13:01:26;;;;;;;;;;;9.10;99.90;;;;;;5124982;27;19922;-83
2023/03/14 13:03:54;;;;;;;;;;;8.60;99.90;;;;;;5127338;27;20297;-83
2023/03/14 13:06:38;;;;;;;;;;;8.60;99.90;;;;;;5126823;27;19923;-84
2023/03/14 13:09:23;;;;;;;;;;;8.30;99.90;;;;;;5110591;27;19915;-83
2023/03/14 13:11:48;;;;;;;;;;;8.70;99.90;;;;;;5117770;27;19975;-83
2023/03/14 13:14:14;;;;;;;;;;;8.70;99.60;;;;;;5110246;27;19926;-84
2023/03/14 13:16:42;;;;;;;;;;;9.10;97.90;;;;;;5096640;27;19921;-83
2023/03/14 13:19:40;;;;;;;;;;;9.70;97.20;;;;;;5129708;27;19919;-83
2023/03/14 13:22:24;;;;;;;;;;;10.60;96.90;;;;;;5088314;27;19919;-82
2023/03/14 13:24:50;;;;;;;;;;;11.50;96.20;;;;;;5125071;27;20432;-81
2023/03/14 13:27:20;;;;;;;;;;;11.60;95.90;;;;;;5108844;27;19915;-82
2023/03/14 13:29:48;;;;;;;;;;;11.40;96.20;;;;;;5126481;27;19915;-81
2023/03/14 13:32:19;;;;;;;;;;;10.80;96.80;;;;;;5129294;27;19922;-82
2023/03/14 13:34:45;;;;;;;;;;;10.40;95.60;;;;;;5104439;27;19916;-82
2023/03/14 13:37:21;;;;;;;;;;;10.20;95.40;;;;;;5109738;27;20363;-81
2023/03/14 13:39:51;;;;;;;;;;;9.80;95.80;;;;;;5122912;27;19919;-82
2023/03/14 13:42:17;;;;;;;;;;;9.50;97.40;;;;;;5123297;27;19967;-81
2023/03/14 13:44:42;;;;;;;;;;;9.50;98.80;;;;;;5123847;27;19916;-81
2023/03/14 13:47:19;;;;;;;;;;;9.30;98.80;;;;;;5091427;27;19915;-82
2023/03/14 13:49:45;;;;;;;;;;;9.30;98.00;;;;;;5121157;27;19915;-81
2023/03/14 13:52:24;;;;;;;;;;;9.00;97.90;;;;;;5124847;27;19922;-82
2023/03/14 13:54:56;;;;;;;;;;;8.80;98.50;;;;;;5123496;27;20382;-81
2023/03/14 13:57:22;;;;;;;;;;;8.80;99.80;;;;;;5124753;27;19930;-81
2023/03/14 14:00:00;;;;;;;;;;;8.90;99.90;;;;;;5109599;27;19918;-82
2023/03/14 14:02:27;;;;;;;;;;;8.90;99.70;;;;;;5125230;27;20067;-81
2023/03/14 14:04:52;;;;;;;;;;;9.10;98.40;;;;;;5108299;27;19915;-81
2023/03/14 14:07:18;;;;;;;;;;;9.10;98.60;;;;;;5128210;27;19922;-81
2023/03/14 14:09:48;;;;;;;;;;;9.20;98.80;;;;;;5125162;27;19987;-81
2023/03/14 14:12:21;;;;;;;;;;;9.20;98.30;;;;;;5125961;27;20009;-81
2023/03/14 14:14:53;;;;;;;;;;;9.00;98.30;;;;;;5106404;27;19940;-81
2023/03/14 14:17:21;;;;;;;;;;;8.90;98.30;;;;;;5128550;27;19915;-82
2023/03/14 14:19:46;;;;;;;;;;;8.80;97.70;;;;;;5137539;27;19920;-81
2023/03/14 14:22:12;;;;;;;;;;;8.70;97.10;;;;;;5128349;27;19915;-82
2023/03/14 14:24:38;;;;;;;;;;;8.60;96.60;;;;;;5125195;27;19919;-82
2023/03/14 14:27:07;;;;;;;;;;;8.50;97.90;;;;;;5125204;27;19921;-83
2023/03/14 14:29:33;;;;;;;;;;;8.40;98.80;;;;;;5106877;27;19938;-83